Hlavní strana
METAR-TAF:

METAR-TAF

Letiště :

Letiště Tbilisi

Tbilisi, Gruzie

zeměpisná šířka: 41-40-09N, zeměpisná délka: 044-57-17E, výška: 495 m

Aktuální stav počasí

Zpráva byla vytvořena před 19 minutami, v 04:30 UTC
Západoseverozápadní vítr 5 kt
Teplota 8°C
Vlhkost vzduchu 81%
Tlak 1026 hPa
Viditelnost 10 km a více
Žádná oblačnost pod 1500 m, nevyskytují se cumulonimby.

METAR: UGTB 050430Z 29005KT CAVOK 08/05 Q1026 NOSIG

Čas: 08:49 (04:49 UTC)

Předpověď počasí

Zpráva byla vytvořena před 5 hodinami a 49 minutami, v 23:00 UTC
Předpověď platná od 05 v 00 UTC do 05 v 24 UTC
Severoseverovýchodní vítr 5 kt
Viditelnost 10 km a více
Žádná oblačnost pod 1500 m, nevyskytují se cumulonimby.
Změna
od 05 v 15 UTC do 05 v 17 UTC
Oblačno až skoro zataženo ve výšce 3000 ft

TAF: UGTB 042300Z 0500/0524 03005KT CAVOK TX17/0512Z TN06/0503Z BECMG 0515/0517 BKN030

Stav a předpovědi počasí z více než 4 000 letišť (zprávy METAR a TAF).

Červené a žluté tečky na mapě představují dostupné meteorologické stanice.

Když kurzor umístíte na tečku, zobrazí se název stanice.

Pak kliknutím zobrazíte stav a předpověď počasí.

Chcete-li změnit mapu, kliknutím na zelené tlačítko se znaménkem +mapu přiblížíte, kliknutím na zelené tlačítko se znaménkem – mapu oddálíte a kliknutím na zelené šipky přejdete na sousední mapy.


METAR-TAF: